KMEM/MEM METAR and TAF weather

Enter ICAO airport designator
Station Type Date Time Source
KMEM METAR 2019/07/17 18:54 UTC NOAA

KMEM 171854Z 22007KT 10SM BKN027 33/27 A3005 RMK AO2 SLP172 BKN V SCT T03280272


Station Type Date Time Source
KMEM Decoded METAR 2019/07/17 18:54 UTC NOAA

MEMPHIS INTERNATIONAL AIRPORT , TN, United States (KMEM) 35-02N 089-59W 86M
Jul 17, 2019 - 02:54 PM EDT / 2019.07.17 1854 UTC
Wind: from the SW (220 degrees) at 8 MPH (7 KT):0
Visibility: 10 mile(s):0
Sky conditions: mostly cloudy
Temperature: 91.0 F (32.8 C)
Heat index: 110.5 F (43.6 C):1
Dew Point: 81.0 F (27.2 C)
Relative Humidity: 72%
Pressure (altimeter): 30.05 in. Hg (1017 hPa)
ob: KMEM 171854Z 22007KT 10SM BKN027 33/27 A3005 RMK AO2 SLP172 BKN V SCT T03280272
cycle: 19

Station Type Date Time Source
KMEM TAF 2019/07/17 18:30 UTC NOAA

TAF KMEM 171728Z 1718/1824 25010G15KT P6SM SCT030 SCT050
FM171900 24009KT P6SM VCTS BKN045CB
FM180200 21006KT P6SM FEW030 BKN250
FM181500 23007KT P6SM SCT035

Example: see airport list